Time;durP1;ratioP1;P1;durP2;ratioP2;P2;SDS_P1;SDS_P2;PMS_P1;PMS_P2;Temp;Humidity;BMP_temperature;BMP_pressure;BME280_temperature;BME280_humidity;BME280_pressure;Samples;Min_cycle;Max_cycle;Signal;HPM_P1;HPM_P2
2023/01/27 00:02:06;;;;;;;0.50;0.10;;;2.40;99.90;;;;;;4954096;29;20447;-68
2023/01/27 00:04:34;;;;;;;0.93;0.93;;;2.50;99.90;;;;;;4954453;29;20813;-67
2023/01/27 00:07:02;;;;;;;0.50;0.10;;;2.50;99.90;;;;;;4954039;29;20480;-69
2023/01/27 00:09:31;;;;;;;1.03;0.93;;;2.50;99.90;;;;;;4953882;29;20452;-67
2023/01/27 00:14:44;;;;;;;0.50;0.10;;;2.40;99.90;;;;;;4954096;29;20526;-68
2023/01/27 00:17:11;;;;;;;0.50;0.10;;;2.40;99.90;;;;;;4953811;29;20938;-69
2023/01/27 00:19:43;;;;;;;0.50;0.10;;;2.40;99.90;;;;;;4953815;29;20452;-68
2023/01/27 00:24:58;;;;;;;0.50;0.23;;;2.40;99.90;;;;;;4953548;29;20526;-70
2023/01/27 00:27:26;;;;;;;0.50;0.10;;;2.40;99.90;;;;;;4953595;29;20491;-69
2023/01/27 00:29:54;;;;;;;0.50;0.20;;;2.40;99.90;;;;;;4953644;29;20443;-69
2023/01/27 00:35:07;;;;;;;1.53;1.13;;;;;;;;;;4954370;29;20854;-69
2023/01/27 00:37:35;;;;;;;0.90;0.60;;;2.40;99.90;;;;;;4955289;29;20439;-69
2023/01/27 00:40:05;;;;;;;0.50;0.20;;;2.40;99.90;;;;;;4954780;29;20453;-68
2023/01/27 00:42:33;;;;;;;0.60;0.40;;;2.40;99.90;;;;;;4955231;29;20977;-69
2023/01/27 00:47:48;;;;;;;0.60;0.30;;;2.40;99.90;;;;;;4954032;29;20904;-69
2023/01/27 00:50:16;;;;;;;1.43;0.83;;;2.40;99.90;;;;;;4954589;28;20855;-68
2023/01/27 00:52:44;;;;;;;0.83;0.60;;;2.40;99.90;;;;;;4957021;29;20810;-68
2023/01/27 00:55:14;;;;;;;1.23;0.40;;;;;;;;;;4956679;29;20528;-68
2023/01/27 00:57:42;;;;;;;2.23;1.97;;;2.40;99.90;;;;;;4956829;29;20445;-68
2023/01/27 05:00:37;;;;;;;0.50;0.17;;;2.90;99.90;;;;;;5918545;23;21856;-71
2023/01/27 05:03:05;;;;;;;0.80;0.80;;;2.90;99.90;;;;;;4914058;29;20469;-72
2023/01/27 05:05:32;;;;;;;0.53;0.23;;;2.80;99.90;;;;;;4919119;29;20497;-72
2023/01/27 05:08:03;;;;;;;1.07;0.53;;;2.80;99.90;;;;;;4910360;29;20829;-72
2023/01/27 05:10:31;;;;;;;2.83;2.20;;;;;;;;;;4916801;29;20808;-72
2023/01/27 05:13:00;;;;;;;0.63;0.63;;;2.70;99.90;;;;;;4912650;29;20449;-72
2023/01/27 05:15:29;;;;;;;0.50;0.20;;;2.70;99.90;;;;;;4920628;29;20484;-72
2023/01/27 05:17:58;;;;;;;0.50;0.10;;;2.80;99.90;;;;;;4920776;29;20450;-72
2023/01/27 05:20:26;;;;;;;2.30;1.17;;;;;;;;;;4920528;29;20462;-71
2023/01/27 05:23:33;;;;;;;1.20;0.93;;;2.80;99.90;;;;;;4915413;29;20455;-72
2023/01/27 05:25:43;;;;;;;0.50;0.20;;;2.70;99.90;;;;;;4920522;29;20453;-72
2023/01/27 05:28:11;;;;;;;0.50;0.10;;;2.70;99.90;;;;;;4919625;29;20477;-73
2023/01/27 05:30:39;;;;;;;0.50;0.10;;;2.80;99.90;;;;;;4918557;29;20456;-72
2023/01/27 05:33:09;;;;;;;0.50;0.10;;;4.90;99.90;;;;;;4915210;29;20453;-72
2023/01/27 05:35:37;;;;;;;1.07;0.97;;;2.80;99.90;;;;;;4916609;29;20435;-72
2023/01/27 05:38:05;;;;;;;1.13;0.90;;;2.80;99.90;;;;;;4924617;29;20462;-72
2023/01/27 05:40:33;;;;;;;0.70;0.60;;;2.70;99.90;;;;;;4909857;29;20464;-72
2023/01/27 05:43:01;;;;;;;0.50;0.20;;;2.70;99.90;;;;;;4911653;29;20453;-72
2023/01/27 05:45:29;;;;;;;0.50;0.30;;;2.70;99.90;;;;;;4917666;29;20464;-72
2023/01/27 05:47:56;;;;;;;0.50;0.10;;;2.80;99.90;;;;;;4910655;29;21051;-72
2023/01/27 05:50:26;;;;;;;0.50;0.10;;;;;;;;;;4906454;29;20459;-74
2023/01/27 05:52:54;;;;;;;0.50;0.10;;;2.80;99.90;;;;;;4904548;29;20458;-73
2023/01/27 05:55:22;;;;;;;0.50;0.10;;;2.80;99.90;;;;;;4903348;29;20934;-73
2023/01/27 05:57:49;;;;;;;0.60;0.60;;;2.80;99.90;;;;;;4904205;29;20451;-71
2023/01/27 06:00:19;;;;;;;0.70;0.50;;;2.70;99.90;;;;;;4905233;29;21257;-72
2023/01/27 06:02:46;;;;;;;1.13;1.03;;;2.80;99.90;;;;;;4920805;29;20922;-72
2023/01/27 06:05:15;;;;;;;0.50;0.10;;;2.80;99.90;;;;;;4924416;29;20995;-72
2023/01/27 06:07:44;;;;;;;2.20;1.70;;;2.80;99.90;;;;;;4921528;29;20498;-73
2023/01/27 06:10:12;;;;;;;0.60;0.30;;;2.80;99.90;;;;;;4900364;29;20446;-73
2023/01/27 06:12:40;;;;;;;0.90;0.40;;;2.90;99.90;;;;;;4900697;29;20496;-73
2023/01/27 06:15:09;;;;;;;1.53;1.43;;;2.80;99.90;;;;;;4901106;29;20481;-74
2023/01/27 06:17:37;;;;;;;1.23;1.13;;;2.80;99.90;;;;;;4915401;29;20457;-73
2023/01/27 06:20:05;;;;;;;0.67;0.67;;;2.80;99.90;;;;;;4919326;29;20472;-73
2023/01/27 06:22:33;;;;;;;0.50;0.20;;;2.80;99.90;;;;;;4918407;29;20483;-72
2023/01/27 06:25:03;;;;;;;2.30;0.77;;;2.80;99.90;;;;;;4916536;29;20462;-73
2023/01/27 06:27:30;;;;;;;0.50;0.20;;;2.80;99.90;;;;;;4918334;29;20532;-73
2023/01/27 06:29:58;;;;;;;0.50;0.10;;;2.80;99.90;;;;;;4914041;29;20462;-73
2023/01/27 06:32:26;;;;;;;0.63;0.63;;;2.80;99.90;;;;;;4900166;29;20467;-74
2023/01/27 06:34:54;;;;;;;0.60;0.60;;;2.80;99.90;;;;;;4901935;29;20450;-72
2023/01/27 06:37:22;;;;;;;0.50;0.10;;;2.80;99.90;;;;;;4900891;29;20455;-72
2023/01/27 06:39:50;;;;;;;0.50;0.10;;;2.90;99.90;;;;;;4900407;29;20868;-73
2023/01/27 06:42:19;;;;;;;0.50;0.10;;;2.90;99.90;;;;;;4913145;29;20570;-73
2023/01/27 06:44:47;;;;;;;1.50;1.40;;;2.90;99.90;;;;;;4919714;29;20505;-72
2023/01/27 06:47:15;;;;;;;0.60;0.50;;;2.90;99.90;;;;;;4924165;29;20484;-72
2023/01/27 06:49:42;;;;;;;3.00;2.10;;;2.90;99.90;;;;;;4925735;29;20936;-73
2023/01/27 06:52:10;;;;;;;0.50;0.20;;;2.90;99.90;;;;;;4923228;29;20473;-71
2023/01/27 06:54:38;;;;;;;0.60;0.47;;;3.00;99.90;;;;;;4923719;29;20444;-72
2023/01/27 06:57:08;;;;;;;0.50;0.20;;;3.00;99.90;;;;;;4926618;29;20505;-72
2023/01/27 06:59:38;;;;;;;0.50;0.10;;;3.00;99.90;;;;;;4920435;29;20667;-73
2023/01/27 07:02:06;;;;;;;0.50;0.10;;;3.00;99.90;;;;;;4900364;29;20478;-71
2023/01/27 07:04:34;;;;;;;0.50;0.10;;;3.00;99.90;;;;;;4900718;29;20465;-72
2023/01/27 07:07:02;;;;;;;0.50;0.10;;;3.00;99.90;;;;;;4902922;29;20455;-73
2023/01/27 07:09:30;;;;;;;1.47;0.37;;;3.00;99.90;;;;;;4915218;29;20447;-72
2023/01/27 07:12:09;;;;;;;0.50;0.10;;;3.10;99.90;;;;;;4924318;29;20478;-72
2023/01/27 07:14:38;;;;;;;0.83;0.50;;;3.10;99.90;;;;;;4923970;29;20481;-71
2023/01/27 07:17:07;;;;;;;2.40;2.30;;;3.10;99.90;;;;;;4924860;29;20468;-73
2023/01/27 07:19:35;;;;;;;4.10;0.73;;;3.10;99.90;;;;;;4924254;29;20456;-72
2023/01/27 07:22:03;;;;;;;0.60;0.60;;;3.10;99.90;;;;;;4927951;29;20474;-72
2023/01/27 07:24:31;;;;;;;0.60;0.20;;;3.00;99.90;;;;;;4935432;29;20444;-73
2023/01/27 07:26:59;;;;;;;4.33;4.03;;;3.10;99.90;;;;;;4931385;29;20484;-72
2023/01/27 07:29:27;;;;;;;0.70;0.23;;;3.10;99.90;;;;;;4924827;29;20461;-72
2023/01/27 07:31:56;;;;;;;0.50;0.10;;;3.10;99.90;;;;;;4921331;29;20998;-73
2023/01/27 07:34:24;;;;;;;0.70;0.43;;;3.10;99.90;;;;;;4919941;29;20453;-72
2023/01/27 07:36:52;;;;;;;21.10;19.90;;;3.10;99.90;;;;;;4920835;29;20449;-71
2023/01/27 07:39:20;;;;;;;1.87;1.63;;;3.20;99.90;;;;;;4920989;29;20543;-72
2023/01/27 07:41:48;;;;;;;1.43;0.40;;;3.20;99.90;;;;;;4923208;29;20474;-71
2023/01/27 07:44:16;;;;;;;4.33;4.00;;;3.20;99.90;;;;;;4920945;29;20496;-72
2023/01/27 07:46:44;;;;;;;1.33;0.63;;;3.20;99.90;;;;;;4921393;29;20457;-71
2023/01/27 07:49:13;;;;;;;0.67;0.67;;;3.10;99.90;;;;;;4922424;29;20488;-72
2023/01/27 07:51:41;;;;;;;0.50;0.17;;;3.20;99.90;;;;;;4922892;29;20837;-71
2023/01/27 07:54:08;;;;;;;0.93;0.93;;;3.20;99.90;;;;;;4918544;29;20909;-72
2023/01/27 07:56:36;;;;;;;4.03;1.03;;;3.20;99.90;;;;;;4917672;29;20457;-72
2023/01/27 07:59:04;;;;;;;0.50;0.20;;;3.20;99.90;;;;;;4917809;29;20574;-72
2023/01/27 08:01:32;;;;;;;0.60;0.40;;;3.20;99.90;;;;;;4920555;29;20486;-72
2023/01/27 08:04:00;;;;;;;0.50;0.20;;;3.20;99.90;;;;;;4922250;29;20457;-72
2023/01/27 08:06:29;;;;;;;0.50;0.20;;;3.30;99.90;;;;;;4922248;29;20468;-72
2023/01/27 08:08:57;;;;;;;1.10;0.70;;;3.30;99.90;;;;;;4914051;29;20862;-73
2023/01/27 08:11:25;;;;;;;0.50;0.10;;;3.30;99.90;;;;;;4903791;29;20477;-72
2023/01/27 08:13:53;;;;;;;0.50;0.10;;;3.30;99.90;;;;;;4904208;29;20464;-74
2023/01/27 08:16:21;;;;;;;0.50;0.20;;;3.30;99.90;;;;;;4911025;29;20485;-71
2023/01/27 08:18:48;;;;;;;0.60;0.30;;;3.30;99.90;;;;;;4910230;29;20525;-72
2023/01/27 08:21:16;;;;;;;0.60;0.50;;;3.30;99.90;;;;;;4910952;29;20473;-72
2023/01/27 08:23:45;;;;;;;0.50;0.10;;;3.40;99.90;;;;;;4912789;29;20449;-72
2023/01/27 08:26:13;;;;;;;1.13;0.30;;;3.40;99.90;;;;;;4910313;29;20470;-72
2023/01/27 08:28:41;;;;;;;0.50;0.20;;;3.40;99.90;;;;;;4907854;29;20489;-72
2023/01/27 08:31:11;;;;;;;0.50;0.10;;;3.50;99.90;;;;;;4902884;29;20489;-72
2023/01/27 08:33:40;;;;;;;0.50;0.10;;;3.50;99.90;;;;;;4903786;29;21087;-72
2023/01/27 08:36:11;;;;;;;0.50;0.10;;;3.50;99.90;;;;;;4902990;29;20453;-72
2023/01/27 08:38:40;;;;;;;0.50;0.10;;;3.50;99.90;;;;;;4902205;29;20820;-72
2023/01/27 08:41:11;;;;;;;0.50;0.10;;;3.60;99.90;;;;;;4906297;29;20469;-72
2023/01/27 08:43:40;;;;;;;0.50;0.10;;;3.60;99.90;;;;;;4905752;29;20449;-71
2023/01/27 08:46:09;;;;;;;0.50;0.30;;;3.60;99.90;;;;;;4907801;29;20486;-72
2023/01/27 08:48:37;;;;;;;0.50;0.10;;;3.70;99.90;;;;;;4905412;29;20488;-70
2023/01/27 08:51:06;;;;;;;0.50;0.10;;;3.80;99.90;;;;;;4903459;29;20470;-71
2023/01/27 08:53:35;;;;;;;6.40;6.13;;;3.80;99.90;;;;;;4901963;29;20465;-71
2023/01/27 08:56:05;;;;;;;1.10;1.00;;;3.80;99.90;;;;;;4901470;29;20459;-74
2023/01/27 08:58:35;;;;;;;0.50;0.10;;;3.80;99.90;;;;;;4902456;29;20449;-72
2023/01/27 09:01:04;;;;;;;0.50;0.10;;;3.80;99.90;;;;;;4901608;29;20480;-72
2023/01/27 09:03:33;;;;;;;0.70;0.47;;;3.80;99.90;;;;;;4902090;29;20952;-72
2023/01/27 09:06:02;;;;;;;0.60;0.30;;;3.80;99.90;;;;;;4901603;29;20457;-72
2023/01/27 09:08:29;;;;;;;0.70;0.53;;;3.70;99.90;;;;;;4908924;29;20484;-72
2023/01/27 09:10:57;;;;;;;1.13;1.10;;;3.70;99.90;;;;;;4925483;29;20492;-72
2023/01/27 09:13:27;;;;;;;0.50;0.20;;;3.70;99.90;;;;;;4921430;29;20466;-72
2023/01/27 09:15:56;;;;;;;0.73;0.73;;;3.70;99.90;;;;;;4917420;29;20456;-72
2023/01/27 09:18:24;;;;;;;0.60;0.60;;;3.70;99.90;;;;;;4900587;29;20450;-72
2023/01/27 09:20:52;;;;;;;1.23;1.13;;;3.60;99.90;;;;;;4899911;29;20549;-72
2023/01/27 09:23:20;;;;;;;1.23;1.13;;;3.60;99.90;;;;;;4900435;29;20626;-73
2023/01/27 09:25:49;;;;;;;0.50;0.30;;;3.60;99.90;;;;;;4900860;29;20449;-75
2023/01/27 09:28:16;;;;;;;0.50;0.20;;;3.70;99.90;;;;;;4900158;29;20513;-71
2023/01/27 09:30:45;;;;;;;2.20;1.10;;;3.70;99.90;;;;;;4902400;29;20444;-73
2023/01/27 09:33:15;;;;;;;1.07;0.97;;;3.70;99.90;;;;;;4905079;29;20480;-73
2023/01/27 09:35:48;;;;;;;0.60;0.50;;;3.60;99.90;;;;;;4906763;29;20454;-72
2023/01/27 09:38:19;;;;;;;0.50;0.20;;;3.70;99.90;;;;;;4906794;29;20434;-70
2023/01/27 09:41:03;;;;;;;0.50;0.30;;;3.70;99.90;;;;;;4906935;29;20476;-72
2023/01/27 09:43:58;;;;;;;1.33;1.03;;;3.70;99.90;;;;;;4906801;29;20492;-73
2023/01/27 09:46:38;;;;;;;0.87;0.87;;;3.80;99.90;;;;;;4910514;29;20446;-72
2023/01/27 09:49:25;;;;;;;0.50;0.10;;;3.80;99.90;;;;;;4908922;29;20488;-72
2023/01/27 09:52:13;;;;;;;1.40;0.73;;;3.70;99.90;;;;;;4910067;29;20486;-72
2023/01/27 09:54:56;;;;;;;4.60;1.97;;;3.70;99.90;;;;;;4911386;29;20449;-72
2023/01/27 09:57:38;;;;;;;0.50;0.10;;;3.60;99.90;;;;;;4911479;29;20453;-72
2023/01/27 10:00:16;;;;;;;0.60;0.40;;;3.60;99.90;;;;;;4914385;29;20446;-70
2023/01/27 10:03:16;;;;;;;0.50;0.20;;;3.70;99.90;;;;;;4911099;29;20542;-72
2023/01/27 10:06:18;;;;;;;1.10;0.70;;;3.70;99.90;;;;;;4910069;29;20450;-72
2023/01/27 10:09:18;;;;;;;3.20;1.80;;;3.70;99.90;;;;;;4917049;29;20456;-73
2023/01/27 10:11:58;;;;;;;0.50;0.30;;;3.70;99.90;;;;;;4930145;29;20473;-72
2023/01/27 10:14:35;;;;;;;0.50;0.20;;;3.60;99.90;;;;;;4924705;29;20449;-73
2023/01/27 10:17:20;;;;;;;0.70;0.67;;;3.70;99.90;;;;;;4921978;29;20446;-71
2023/01/27 10:20:02;;;;;;;0.50;0.30;;;3.70;99.90;;;;;;4923776;29;20444;-73
2023/01/27 10:22:40;;;;;;;2.20;1.93;;;3.70;99.90;;;;;;4922865;29;20471;-73
2023/01/27 10:25:22;;;;;;;0.50;0.10;;;3.80;99.90;;;;;;4925100;29;20459;-73
2023/01/27 10:27:55;;;;;;;0.50;0.30;;;3.80;99.90;;;;;;4922112;29;20428;-72
2023/01/27 10:30:30;;;;;;;0.50;0.10;;;3.90;99.90;;;;;;4923561;29;20490;-73
2023/01/27 10:33:07;;;;;;;0.97;0.70;;;3.90;99.90;;;;;;4928839;29;20487;-73
2023/01/27 10:35:41;;;;;;;0.50;0.10;;;3.90;99.90;;;;;;4927957;29;20519;-72
2023/01/27 10:38:18;;;;;;;0.50;0.10;;;3.90;99.90;;;;;;4926258;29;20447;-72
2023/01/27 10:40:52;;;;;;;0.50;0.10;;;3.90;99.90;;;;;;4925410;29;20455;-73
2023/01/27 10:43:32;;;;;;;0.50;0.23;;;3.90;99.90;;;;;;4927320;29;20459;-73
2023/01/27 10:46:08;;;;;;;0.83;0.83;;;3.90;99.90;;;;;;4922138;29;20521;-72
2023/01/27 10:48:42;;;;;;;0.50;0.20;;;3.90;99.90;;;;;;4918352;29;20973;-72
2023/01/27 10:51:14;;;;;;;0.50;0.10;;;3.90;99.90;;;;;;4917674;29;20554;-72
2023/01/27 10:53:56;;;;;;;0.77;0.47;;;3.90;99.90;;;;;;4918150;29;20460;-72
2023/01/27 10:56:33;;;;;;;0.50;0.23;;;3.90;99.90;;;;;;4918756;29;20456;-71
2023/01/27 10:59:06;;;;;;;0.50;0.20;;;3.90;99.90;;;;;;4921825;29;20453;-73
2023/01/27 11:01:43;;;;;;;1.03;1.03;;;4.00;99.90;;;;;;4919449;29;20481;-72
2023/01/27 11:04:22;;;;;;;1.37;0.60;;;4.00;99.90;;;;;;4926134;29;20479;-73
2023/01/27 11:06:52;;;;;;;0.50;0.10;;;3.90;99.90;;;;;;4926186;29;20540;-73
2023/01/27 11:09:28;;;;;;;0.50;0.30;;;3.90;99.90;;;;;;4922666;29;21010;-72
2023/01/27 11:12:04;;;;;;;0.87;0.80;;;4.00;99.90;;;;;;4924426;29;20937;-72
2023/01/27 11:14:37;;;;;;;0.60;0.40;;;4.10;99.90;;;;;;4924717;29;20465;-72
2023/01/27 11:17:15;;;;;;;1.53;0.67;;;4.00;99.90;;;;;;4919074;29;20474;-73
2023/01/27 11:19:50;;;;;;;0.50;0.20;;;4.10;99.90;;;;;;4919537;29;20444;-72
2023/01/27 11:22:21;;;;;;;0.60;0.60;;;4.10;99.90;;;;;;4919378;29;20484;-73
2023/01/27 11:24:57;;;;;;;0.50;0.10;;;4.20;99.90;;;;;;4917647;29;20532;-72
2023/01/27 11:27:44;;;;;;;0.70;0.63;;;4.10;99.90;;;;;;4917012;29;20449;-73
2023/01/27 11:30:19;;;;;;;0.50;0.10;;;4.20;99.90;;;;;;4917276;29;20487;-73
2023/01/27 11:32:54;;;;;;;0.70;0.40;;;4.20;99.90;;;;;;4917911;29;20478;-72
2023/01/27 11:35:22;;;;;;;0.50;0.10;;;4.30;99.90;;;;;;4916872;29;20444;-72
2023/01/27 11:37:52;;;;;;;0.50;0.10;;;4.30;99.90;;;;;;4917495;29;20456;-72
2023/01/27 11:40:33;;;;;;;0.60;0.40;;;4.30;99.90;;;;;;4923621;29;20528;-73
2023/01/27 11:43:03;;;;;;;1.23;1.23;;;4.30;99.90;;;;;;4920083;29;20456;-73
2023/01/27 11:45:35;;;;;;;0.50;0.10;;;4.40;99.90;;;;;;4917195;29;20449;-73
2023/01/27 11:48:07;;;;;;;1.03;0.93;;;4.40;99.90;;;;;;4916828;29;20517;-73
2023/01/27 11:50:36;;;;;;;0.50;0.10;;;4.30;99.90;;;;;;4916446;29;20983;-72
2023/01/27 11:53:12;;;;;;;0.50;0.10;;;4.30;99.90;;;;;;4917000;29;20450;-72
2023/01/27 11:55:45;;;;;;;0.50;0.10;;;4.40;99.90;;;;;;4916885;29;20947;-73
2023/01/27 11:58:25;;;;;;;0.80;0.50;;;4.50;99.90;;;;;;4916620;29;20452;-72
2023/01/27 12:00:58;;;;;;;0.90;0.43;;;4.50;99.90;;;;;;4916676;29;20483;-72
2023/01/27 12:03:42;;;;;;;0.50;0.10;;;4.50;99.90;;;;;;4917636;29;20553;-74
2023/01/27 12:06:15;;;;;;;0.50;0.20;;;4.50;99.90;;;;;;4917203;29;20480;-72
2023/01/27 12:08:45;;;;;;;0.50;0.10;;;4.60;99.90;;;;;;4909426;29;20838;-72
2023/01/27 12:11:21;;;;;;;0.50;0.10;;;4.60;99.90;;;;;;4897173;29;20501;-72
2023/01/27 12:13:54;;;;;;;1.17;0.93;;;4.70;99.90;;;;;;4897728;29;20454;-72
2023/01/27 12:16:25;;;;;;;0.50;0.10;;;4.70;99.90;;;;;;4897928;29;20457;-72
2023/01/27 12:18:58;;;;;;;0.90;0.77;;;4.70;99.90;;;;;;4898632;29;20585;-71
2023/01/27 12:21:36;;;;;;;0.50;0.10;;;4.70;99.90;;;;;;4898135;29;20835;-72
2023/01/27 12:24:12;;;;;;;0.50;0.20;;;4.70;99.90;;;;;;4898471;29;21024;-72
2023/01/27 12:26:44;;;;;;;0.50;0.10;;;4.80;99.90;;;;;;4898418;29;20485;-72
2023/01/27 12:29:18;;;;;;;0.50;0.17;;;4.70;99.90;;;;;;4899098;29;20532;-71
2023/01/27 12:31:49;;;;;;;0.50;0.10;;;4.80;99.90;;;;;;4898750;29;20496;-71
2023/01/27 12:34:27;;;;;;;0.50;0.20;;;4.70;99.90;;;;;;4900163;29;20454;-72
2023/01/27 12:36:56;;;;;;;0.90;0.50;;;4.70;99.90;;;;;;4901388;29;20458;-72
2023/01/27 12:39:30;;;;;;;0.80;0.80;;;4.60;99.90;;;;;;4900284;29;20448;-72
2023/01/27 12:41:59;;;;;;;0.50;0.20;;;4.60;99.90;;;;;;4899744;29;20470;-70
2023/01/27 12:44:39;;;;;;;0.50;0.10;;;4.70;99.90;;;;;;4900345;29;20495;-73
2023/01/27 12:47:24;;;;;;;0.50;0.20;;;4.70;99.90;;;;;;4902788;29;20484;-72
2023/01/27 12:49:52;;;;;;;0.50;0.10;;;;;;;;;;4904264;29;20460;-72
2023/01/27 12:52:21;;;;;;;0.50;0.30;;;4.70;99.90;;;;;;4903934;29;20864;-72
2023/01/27 12:54:50;;;;;;;0.50;0.10;;;4.70;99.90;;;;;;4903693;29;20458;-72
2023/01/27 12:57:21;;;;;;;0.60;0.40;;;4.70;99.90;;;;;;4904386;29;20467;-73
2023/01/27 12:59:52;;;;;;;0.70;0.30;;;4.70;99.90;;;;;;4905020;29;20445;-72
2023/01/27 13:02:23;;;;;;;0.50;0.10;;;4.60;99.90;;;;;;4903813;29;20493;-72
2023/01/27 13:04:54;;;;;;;2.20;1.17;;;4.60;99.90;;;;;;4902484;29;20544;-72
2023/01/27 13:07:25;;;;;;;0.50;0.10;;;4.70;99.90;;;;;;4902185;29;20458;-73
2023/01/27 13:09:55;;;;;;;0.50;0.20;;;4.70;99.90;;;;;;4917871;29;20445;-73
2023/01/27 13:12:27;;;;;;;0.50;0.10;;;4.70;99.90;;;;;;4920217;29;21003;-72
2023/01/27 13:14:58;;;;;;;0.50;0.10;;;4.80;99.90;;;;;;4920804;29;20448;-72
2023/01/27 13:17:38;;;;;;;0.50;0.10;;;4.90;99.90;;;;;;4923940;29;20453;-72
2023/01/27 13:20:15;;;;;;;0.50;0.10;;;4.90;99.90;;;;;;4927257;29;20451;-72
2023/01/27 13:22:46;;;;;;;0.50;0.10;;;5.00;99.90;;;;;;4920327;29;20479;-72
2023/01/27 13:25:18;;;;;;;0.50;0.10;;;5.00;99.90;;;;;;4920014;29;20532;-71
2023/01/27 13:27:49;;;;;;;0.50;0.10;;;5.00;99.90;;;;;;4919986;29;20448;-72
2023/01/27 13:30:26;;;;;;;0.60;0.40;;;5.00;99.90;;;;;;4920343;29;20462;-72
2023/01/27 13:32:59;;;;;;;0.50;0.10;;;5.00;99.90;;;;;;4920691;29;20491;-72
2023/01/27 13:35:33;;;;;;;0.50;0.10;;;5.00;99.90;;;;;;4920559;29;20477;-73
2023/01/27 13:38:08;;;;;;;0.50;0.10;;;5.00;99.90;;;;;;4919957;29;20473;-72
2023/01/27 13:40:43;;;;;;;0.50;0.10;;;5.10;99.90;;;;;;4920108;29;20480;-71
2023/01/27 13:43:18;;;;;;;0.50;0.10;;;5.00;99.90;;;;;;4920066;29;20451;-72
2023/01/27 13:45:54;;;;;;;1.73;0.73;;;5.10;99.90;;;;;;4920224;29;20461;-72
2023/01/27 13:48:27;;;;;;;0.50;0.10;;;5.20;99.90;;;;;;4920304;29;20448;-72
2023/01/27 13:51:03;;;;;;;0.50;0.10;;;5.20;99.90;;;;;;4919537;29;20501;-72
2023/01/27 13:53:31;;;;;;;0.50;0.10;;;5.20;99.90;;;;;;4919947;29;21010;-72
2023/01/27 13:56:10;;;;;;;0.50;0.10;;;5.20;99.90;;;;;;4924937;29;20456;-72
2023/01/27 13:58:50;;;;;;;0.70;0.47;;;5.20;99.90;;;;;;4929505;29;20463;-73
2023/01/27 14:01:25;;;;;;;1.03;0.37;;;5.10;99.90;;;;;;4925510;29;20481;-71
2023/01/27 14:04:16;;;;;;;0.50;0.20;;;5.10;99.90;;;;;;4921802;29;20486;-72
2023/01/27 14:06:55;;;;;;;0.50;0.10;;;5.10;99.90;;;;;;4920592;29;20459;-72
2023/01/27 14:09:35;;;;;;;0.50;0.10;;;5.00;99.90;;;;;;4908470;29;20468;-72
2023/01/27 14:12:10;;;;;;;0.50;0.10;;;5.00;99.90;;;;;;4902022;29;20493;-73
2023/01/27 14:14:53;;;;;;;0.50;0.10;;;5.00;99.90;;;;;;4901410;29;20540;-72
2023/01/27 14:17:35;;;;;;;0.50;0.10;;;5.00;99.90;;;;;;4901633;29;20579;-72
2023/01/27 14:20:19;;;;;;;0.50;0.10;;;5.10;99.90;;;;;;4901165;29;20448;-73
2023/01/27 14:22:57;;;;;;;0.50;0.20;;;5.10;99.90;;;;;;4900796;29;20498;-72
2023/01/27 14:25:35;;;;;;;0.50;0.10;;;5.10;99.90;;;;;;4901439;29;20551;-72
2023/01/27 14:28:09;;;;;;;0.50;0.20;;;5.10;99.90;;;;;;4902209;29;20864;-72
2023/01/27 14:30:43;;;;;;;0.50;0.10;;;4.90;99.90;;;;;;4901755;29;20453;-72
2023/01/27 14:33:19;;;;;;;0.50;0.10;;;4.90;99.90;;;;;;4902251;29;20500;-72
2023/01/27 14:35:55;;;;;;;0.50;0.10;;;4.90;99.90;;;;;;4901878;29;20455;-72
2023/01/27 14:38:30;;;;;;;0.50;0.30;;;4.90;99.90;;;;;;4910140;29;20455;-72
2023/01/27 14:41:11;;;;;;;0.50;0.10;;;5.00;99.90;;;;;;4912957;29;20559;-72
2023/01/27 14:43:47;;;;;;;0.50;0.20;;;5.10;99.90;;;;;;4910585;29;20986;-72
2023/01/27 14:46:27;;;;;;;0.50;0.10;;;5.00;99.90;;;;;;4902578;29;20449;-72
2023/01/27 14:49:11;;;;;;;0.50;0.10;;;5.00;99.90;;;;;;4902946;29;20451;-73
2023/01/27 14:51:43;;;;;;;0.50;0.20;;;5.00;99.90;;;;;;4902195;29;20555;-72
2023/01/27 14:54:31;;;;;;;0.50;0.10;;;5.10;99.90;;;;;;4902111;29;20473;-73
2023/01/27 14:57:15;;;;;;;0.50;0.10;;;5.00;99.90;;;;;;4902412;29;20484;-72
2023/01/27 14:59:52;;;;;;;0.50;0.10;;;5.10;99.90;;;;;;4903182;29;20453;-73
2023/01/27 15:02:37;;;;;;;0.50;0.23;;;5.10;99.90;;;;;;4901794;29;20485;-73
2023/01/27 15:05:11;;;;;;;0.50;0.10;;;5.10;99.90;;;;;;4902256;29;20826;-73
2023/01/27 15:07:48;;;;;;;0.50;0.10;;;5.10;99.90;;;;;;4903166;29;20454;-72
2023/01/27 15:10:23;;;;;;;0.50;0.10;;;5.10;99.90;;;;;;4921115;29;20952;-72
2023/01/27 15:13:27;;;;;;;0.50;0.10;;;5.10;99.90;;;;;;4925887;29;20496;-70
2023/01/27 15:16:21;;;;;;;0.50;0.10;;;5.10;99.90;;;;;;4918695;29;20849;-72
2023/01/27 15:19:06;;;;;;;0.50;0.20;;;5.10;99.90;;;;;;4928506;29;20487;-72
2023/01/27 15:21:54;;;;;;;0.50;0.10;;;5.10;99.90;;;;;;4920600;29;20465;-73
2023/01/27 15:24:47;;;;;;;0.50;0.10;;;5.10;99.90;;;;;;4920201;29;20975;-73
2023/01/27 15:27:15;;;;;;;0.50;0.10;;;5.10;99.90;;;;;;4920948;29;21044;-72
2023/01/27 15:29:44;;;;;;;0.50;0.10;;;5.10;99.90;;;;;;4922523;29;20455;-72
2023/01/27 15:32:25;;;;;;;0.53;0.27;;;5.10;99.90;;;;;;4922122;29;20555;-73
2023/01/27 15:35:30;;;;;;;0.50;0.10;;;5.10;99.90;;;;;;4924909;29;20445;-72
2023/01/27 15:38:00;;;;;;;0.50;0.10;;;3.60;99.90;;;;;;4922369;29;20452;-72
2023/01/27 15:40:28;;;;;;;0.50;0.10;;;5.10;99.90;;;;;;4932375;29;20920;-72
2023/01/27 15:43:04;;;;;;;0.50;0.20;;;5.10;99.90;;;;;;4933185;29;20453;-72
2023/01/27 15:45:34;;;;;;;0.50;0.10;;;5.10;99.90;;;;;;4934373;29;20822;-72
2023/01/27 15:48:07;;;;;;;0.50;0.10;;;5.10;99.90;;;;;;4930576;29;20932;-73
2023/01/27 15:50:39;;;;;;;0.50;0.10;;;5.10;99.90;;;;;;4925565;29;20459;-72
2023/01/27 15:53:13;;;;;;;5.23;2.10;;;5.10;99.90;;;;;;4923045;29;20489;-74
2023/01/27 15:55:50;;;;;;;0.50;0.10;;;5.10;99.90;;;;;;4920202;29;20476;-72
2023/01/27 15:58:26;;;;;;;1.27;0.33;;;5.10;99.90;;;;;;4920271;29;20490;-71
2023/01/27 16:00:56;;;;;;;0.60;0.37;;;5.10;99.90;;;;;;4920022;29;20555;-73
2023/01/27 16:03:27;;;;;;;0.50;0.20;;;5.10;99.90;;;;;;4920246;29;20532;-72
2023/01/27 16:06:01;;;;;;;0.50;0.10;;;5.10;99.90;;;;;;4921516;29;20455;-73
2023/01/27 16:08:39;;;;;;;0.50;0.20;;;5.10;99.90;;;;;;4921248;29;20460;-73
2023/01/27 16:11:40;;;;;;;0.50;0.10;;;5.10;99.90;;;;;;4910949;29;20997;-73
2023/01/27 16:14:45;;;;;;;0.50;0.10;;;5.10;99.90;;;;;;4918318;29;20475;-72
2023/01/27 16:17:21;;;;;;;0.50;0.10;;;5.10;99.90;;;;;;4845761;29;20440;-72
2023/01/27 16:20:00;;;;;;;0.50;0.10;;;5.10;99.90;;;;;;4860942;29;20478;-72
2023/01/27 16:22:33;;;;;;;0.50;0.10;;;5.10;99.90;;;;;;4899077;29;20485;-72
2023/01/27 16:25:13;;;;;;;0.50;0.10;;;5.50;99.90;;;;;;4910111;29;21201;-72
2023/01/27 16:27:47;;;;;;;0.50;0.10;;;5.10;99.90;;;;;;4915600;29;20453;-73
2023/01/27 16:30:19;;;;;;;0.53;0.30;;;5.10;99.90;;;;;;4918125;29;20516;-73
2023/01/27 16:33:04;;;;;;;0.50;0.20;;;5.10;99.90;;;;;;4916783;29;21017;-73
2023/01/27 16:35:38;;;;;;;0.50;0.30;;;5.00;99.90;;;;;;4915088;29;20459;-72
2023/01/27 16:38:20;;;;;;;0.50;0.10;;;5.00;99.90;;;;;;4924746;29;20464;-72
2023/01/27 16:40:52;;;;;;;0.50;0.10;;;5.00;99.90;;;;;;4945389;23;20625;-72
2023/01/27 16:43:23;;;;;;;0.50;0.20;;;5.00;99.90;;;;;;4980640;28;20527;-72
2023/01/27 16:45:54;;;;;;;0.50;0.10;;;4.90;99.90;;;;;;4980578;28;20453;-72
2023/01/27 16:48:25;;;;;;;0.50;0.10;;;;;;;;;;4979352;28;20442;-71
2023/01/27 16:50:55;;;;;;;0.60;0.37;;;4.90;99.90;;;;;;4976412;28;20491;-72
2023/01/27 16:53:25;;;;;;;0.50;0.10;;;4.90;99.90;;;;;;4960784;29;20553;-73
2023/01/27 16:55:58;;;;;;;0.50;0.10;;;4.90;99.90;;;;;;4951757;28;20461;-72
2023/01/27 16:58:27;;;;;;;0.50;0.20;;;5.00;99.90;;;;;;4964730;28;20530;-72
2023/01/27 17:01:21;;;;;;;0.50;0.10;;;5.00;99.90;;;;;;4984968;28;20475;-73
2023/01/27 17:03:51;;;;;;;0.60;0.50;;;5.00;99.90;;;;;;4990041;28;20860;-72
2023/01/27 17:06:21;;;;;;;0.60;0.40;;;5.00;99.90;;;;;;4988389;28;20450;-72
2023/01/27 17:08:50;;;;;;;0.50;0.20;;;5.00;99.90;;;;;;4958592;28;20899;-73
2023/01/27 17:11:23;;;;;;;0.50;0.10;;;5.00;99.90;;;;;;4957728;28;20481;-72
2023/01/27 17:13:57;;;;;;;0.80;0.40;;;5.00;99.90;;;;;;4954047;28;20582;-73
2023/01/27 17:16:27;;;;;;;1.10;0.80;;;5.00;99.90;;;;;;4959172;29;20586;-72
2023/01/27 17:19:01;;;;;;;1.17;0.50;;;5.00;99.90;;;;;;4960127;29;20475;-72
2023/01/27 17:21:33;;;;;;;0.60;0.20;;;5.00;99.90;;;;;;4959631;28;20838;-73
2023/01/27 17:24:07;;;;;;;0.50;0.10;;;5.00;99.90;;;;;;4958383;29;20906;-73
2023/01/27 17:26:35;;;;;;;5.33;5.03;;;4.90;99.90;;;;;;4960148;29;20510;-73
2023/01/27 17:29:03;;;;;;;0.50;0.10;;;4.90;99.90;;;;;;4959949;29;20446;-72
2023/01/27 17:31:36;;;;;;;0.50;0.10;;;4.90;99.90;;;;;;4963317;28;20467;-72
2023/01/27 17:34:05;;;;;;;0.50;0.10;;;4.90;99.90;;;;;;4961696;29;21006;-73
2023/01/27 17:36:33;;;;;;;0.50;0.10;;;4.90;99.90;;;;;;4962708;28;20988;-73
2023/01/27 17:39:02;;;;;;;0.50;0.20;;;4.90;99.90;;;;;;4960827;29;20993;-72
2023/01/27 17:41:35;;;;;;;0.60;0.30;;;4.90;99.90;;;;;;4961789;28;20482;-72
2023/01/27 17:44:10;;;;;;;1.07;0.97;;;4.90;99.90;;;;;;4960950;29;20464;-72